sensor_id;sensor_type;location;lat;lon;timestamp;temperature;humidity
21734;DHT22;11029;47.820;10.534;2023-03-17T00:00:20;1.10;70.70
21734;DHT22;11029;47.820;10.534;2023-03-17T00:02:48;1.10;70.50
21734;DHT22;11029;47.820;10.534;2023-03-17T00:05:19;1.10;69.80
21734;DHT22;11029;47.820;10.534;2023-03-17T00:07:49;1.10;69.50
21734;DHT22;11029;47.820;10.534;2023-03-17T00:10:19;1.10;69.10
21734;DHT22;11029;47.820;10.534;2023-03-17T00:12:49;1.10;69.30
21734;DHT22;11029;47.820;10.534;2023-03-17T00:15:16;0.90;69.10
21734;DHT22;11029;47.820;10.534;2023-03-17T00:17:44;0.70;70.60
21734;DHT22;11029;47.820;10.534;2023-03-17T00:20:23;0.70;70.80
21734;DHT22;11029;47.820;10.534;2023-03-17T00:22:51;0.60;70.80
21734;DHT22;11029;47.820;10.534;2023-03-17T00:25:22;0.50;70.20
21734;DHT22;11029;47.820;10.534;2023-03-17T00:27:49;0.50;70.60
21734;DHT22;11029;47.820;10.534;2023-03-17T00:30:17;0.60;70.10
21734;DHT22;11029;47.820;10.534;2023-03-17T00:32:44;0.50;70.50
21734;DHT22;11029;47.820;10.534;2023-03-17T00:35:24;0.60;69.60
21734;DHT22;11029;47.820;10.534;2023-03-17T00:37:53;0.50;69.90
21734;DHT22;11029;47.820;10.534;2023-03-17T00:40:25;0.40;70.30
21734;DHT22;11029;47.820;10.534;2023-03-17T00:42:58;0.30;70.90
21734;DHT22;11029;47.820;10.534;2023-03-17T00:45:28;0.40;71.00
21734;DHT22;11029;47.820;10.534;2023-03-17T00:47:56;0.40;70.80
21734;DHT22;11029;47.820;10.534;2023-03-17T00:50:26;0.40;71.20
21734;DHT22;11029;47.820;10.534;2023-03-17T00:52:56;0.40;71.00
21734;DHT22;11029;47.820;10.534;2023-03-17T00:55:24;0.50;70.70
21734;DHT22;11029;47.820;10.534;2023-03-17T00:57:53;0.60;69.60
21734;DHT22;11029;47.820;10.534;2023-03-17T01:00:25;0.60;69.80
21734;DHT22;11029;47.820;10.534;2023-03-17T01:02:53;0.60;69.20
21734;DHT22;11029;47.820;10.534;2023-03-17T01:05:22;0.60;69.40
21734;DHT22;11029;47.820;10.534;2023-03-17T01:07:52;0.60;69.40
21734;DHT22;11029;47.820;10.534;2023-03-17T01:10:26;0.50;69.50
21734;DHT22;11029;47.820;10.534;2023-03-17T01:12:55;0.50;70.10
21734;DHT22;11029;47.820;10.534;2023-03-17T01:15:28;0.40;69.00
21734;DHT22;11029;47.820;10.534;2023-03-17T01:18:00;0.30;69.70
21734;DHT22;11029;47.820;10.534;2023-03-17T01:20:30;0.30;69.40
21734;DHT22;11029;47.820;10.534;2023-03-17T01:22:59;0.30;69.60
21734;DHT22;11029;47.820;10.534;2023-03-17T01:25:27;0.10;70.50
21734;DHT22;11029;47.820;10.534;2023-03-17T01:27:55;0.10;70.10
21734;DHT22;11029;47.820;10.534;2023-03-17T01:30:29;0.20;70.30
21734;DHT22;11029;47.820;10.534;2023-03-17T01:32:57;0.10;70.30
21734;DHT22;11029;47.820;10.534;2023-03-17T01:35:26;0.10;70.40
21734;DHT22;11029;47.820;10.534;2023-03-17T01:37:56;0.10;70.60
21734;DHT22;11029;47.820;10.534;2023-03-17T01:40:26;0.10;70.90
21734;DHT22;11029;47.820;10.534;2023-03-17T01:51:47;0.30;69.90
21734;DHT22;11029;47.820;10.534;2023-03-17T01:57:22;0.10;70.80
21734;DHT22;11029;47.820;10.534;2023-03-17T01:59:58;0.10;70.70
21734;DHT22;11029;47.820;10.534;2023-03-17T02:02:31;0.10;71.00
21734;DHT22;11029;47.820;10.534;2023-03-17T02:05:00;0.10;71.20
21734;DHT22;11029;47.820;10.534;2023-03-17T02:07:29;0.20;70.70
21734;DHT22;11029;47.820;10.534;2023-03-17T02:09:57;0.30;70.70
21734;DHT22;11029;47.820;10.534;2023-03-17T02:12:24;0.40;69.90
21734;DHT22;11029;47.820;10.534;2023-03-17T02:14:53;0.40;69.00
21734;DHT22;11029;47.820;10.534;2023-03-17T02:17:23;0.30;68.90
21734;DHT22;11029;47.820;10.534;2023-03-17T02:19:51;0.20;69.10
21734;DHT22;11029;47.820;10.534;2023-03-17T02:22:18;0.20;68.90
21734;DHT22;11029;47.820;10.534;2023-03-17T02:24:50;0.10;70.10
21734;DHT22;11029;47.820;10.534;2023-03-17T02:27:19;0.10;70.30
21734;DHT22;11029;47.820;10.534;2023-03-17T02:29:46;0.00;70.70
21734;DHT22;11029;47.820;10.534;2023-03-17T02:32:14;0.00;70.60
21734;DHT22;11029;47.820;10.534;2023-03-17T02:34:47;0.00;71.00
21734;DHT22;11029;47.820;10.534;2023-03-17T02:37:16;0.10;71.30
21734;DHT22;11029;47.820;10.534;2023-03-17T02:39:43;0.10;71.30
21734;DHT22;11029;47.820;10.534;2023-03-17T02:42:11;0.00;71.20
21734;DHT22;11029;47.820;10.534;2023-03-17T02:44:38;0.10;71.30
21734;DHT22;11029;47.820;10.534;2023-03-17T02:47:06;0.20;71.10
21734;DHT22;11029;47.820;10.534;2023-03-17T02:49:33;0.20;71.00
21734;DHT22;11029;47.820;10.534;2023-03-17T02:52:01;0.20;71.40
21734;DHT22;11029;47.820;10.534;2023-03-17T02:54:28;0.30;70.80
21734;DHT22;11029;47.820;10.534;2023-03-17T02:56:55;0.40;70.40
21734;DHT22;11029;47.820;10.534;2023-03-17T02:59:21;0.50;69.60
21734;DHT22;11029;47.820;10.534;2023-03-17T03:01:48;0.50;69.50
21734;DHT22;11029;47.820;10.534;2023-03-17T03:04:16;0.50;69.80
21734;DHT22;11029;47.820;10.534;2023-03-17T03:06:45;0.50;70.00
21734;DHT22;11029;47.820;10.534;2023-03-17T03:09:12;0.50;69.90
21734;DHT22;11029;47.820;10.534;2023-03-17T03:11:40;0.50;69.50
21734;DHT22;11029;47.820;10.534;2023-03-17T03:14:07;0.50;69.80
21734;DHT22;11029;47.820;10.534;2023-03-17T03:16:33;0.40;70.30
21734;DHT22;11029;47.820;10.534;2023-03-17T03:19:00;0.40;70.70
21734;DHT22;11029;47.820;10.534;2023-03-17T03:21:28;0.50;70.30
21734;DHT22;11029;47.820;10.534;2023-03-17T03:23:55;0.50;70.60
21734;DHT22;11029;47.820;10.534;2023-03-17T03:26:21;0.60;70.30
21734;DHT22;11029;47.820;10.534;2023-03-17T03:28:48;0.60;69.60
21734;DHT22;11029;47.820;10.534;2023-03-17T03:31:15;0.60;69.90
21734;DHT22;11029;47.820;10.534;2023-03-17T03:33:43;0.60;69.90
21734;DHT22;11029;47.820;10.534;2023-03-17T03:36:10;0.60;70.10
21734;DHT22;11029;47.820;10.534;2023-03-17T03:38:37;0.60;70.50
21734;DHT22;11029;47.820;10.534;2023-03-17T03:41:04;0.60;70.30
21734;DHT22;11029;47.820;10.534;2023-03-17T03:43:31;0.40;71.50
21734;DHT22;11029;47.820;10.534;2023-03-17T03:45:58;0.40;72.10
21734;DHT22;11029;47.820;10.534;2023-03-17T03:48:25;0.40;72.40
21734;DHT22;11029;47.820;10.534;2023-03-17T03:50:57;0.40;72.50
21734;DHT22;11029;47.820;10.534;2023-03-17T03:53:25;0.40;72.40
21734;DHT22;11029;47.820;10.534;2023-03-17T03:55:52;0.40;72.10
21734;DHT22;11029;47.820;10.534;2023-03-17T03:58:19;0.50;72.20
21734;DHT22;11029;47.820;10.534;2023-03-17T04:00:46;0.60;72.00
21734;DHT22;11029;47.820;10.534;2023-03-17T04:03:14;0.70;71.90
21734;DHT22;11029;47.820;10.534;2023-03-17T04:05:41;0.80;71.40
21734;DHT22;11029;47.820;10.534;2023-03-17T04:08:08;0.90;70.80
21734;DHT22;11029;47.820;10.534;2023-03-17T04:10:34;0.90;70.30
21734;DHT22;11029;47.820;10.534;2023-03-17T04:13:01;0.70;71.50
21734;DHT22;11029;47.820;10.534;2023-03-17T04:15:28;0.70;71.10
21734;DHT22;11029;47.820;10.534;2023-03-17T04:17:55;0.70;71.60
21734;DHT22;11029;47.820;10.534;2023-03-17T04:20:22;0.60;71.70
21734;DHT22;11029;47.820;10.534;2023-03-17T04:22:48;0.70;72.20
21734;DHT22;11029;47.820;10.534;2023-03-17T04:25:15;0.60;72.10
21734;DHT22;11029;47.820;10.534;2023-03-17T04:27:42;0.60;72.30
21734;DHT22;11029;47.820;10.534;2023-03-17T04:30:12;0.60;72.30
21734;DHT22;11029;47.820;10.534;2023-03-17T04:32:40;0.70;71.90
21734;DHT22;11029;47.820;10.534;2023-03-17T04:35:14;0.70;71.90
21734;DHT22;11029;47.820;10.534;2023-03-17T04:37:41;0.70;72.10
21734;DHT22;11029;47.820;10.534;2023-03-17T04:40:10;0.70;72.30
21734;DHT22;11029;47.820;10.534;2023-03-17T04:42:37;0.70;72.10
21734;DHT22;11029;47.820;10.534;2023-03-17T04:45:05;0.60;72.30
21734;DHT22;11029;47.820;10.534;2023-03-17T04:47:32;0.60;72.90
21734;DHT22;11029;47.820;10.534;2023-03-17T04:49:59;0.60;73.20
21734;DHT22;11029;47.820;10.534;2023-03-17T04:52:26;0.70;72.50
21734;DHT22;11029;47.820;10.534;2023-03-17T04:54:53;0.70;72.30
21734;DHT22;11029;47.820;10.534;2023-03-17T04:57:20;0.70;71.90
21734;DHT22;11029;47.820;10.534;2023-03-17T04:59:47;0.60;72.50
21734;DHT22;11029;47.820;10.534;2023-03-17T05:02:14;0.50;72.60
21734;DHT22;11029;47.820;10.534;2023-03-17T05:04:41;0.40;73.70
21734;DHT22;11029;47.820;10.534;2023-03-17T05:07:08;0.50;73.40
21734;DHT22;11029;47.820;10.534;2023-03-17T05:09:34;0.60;73.10
21734;DHT22;11029;47.820;10.534;2023-03-17T05:12:01;0.60;72.80
21734;DHT22;11029;47.820;10.534;2023-03-17T05:14:28;0.60;72.60
21734;DHT22;11029;47.820;10.534;2023-03-17T05:16:55;0.60;72.40
21734;DHT22;11029;47.820;10.534;2023-03-17T05:19:21;0.70;72.30
21734;DHT22;11029;47.820;10.534;2023-03-17T05:21:48;0.70;72.10
21734;DHT22;11029;47.820;10.534;2023-03-17T05:24:15;0.80;71.90
21734;DHT22;11029;47.820;10.534;2023-03-17T05:26:42;0.80;71.60
21734;DHT22;11029;47.820;10.534;2023-03-17T05:29:10;0.80;71.80
21734;DHT22;11029;47.820;10.534;2023-03-17T05:31:36;0.70;72.40
21734;DHT22;11029;47.820;10.534;2023-03-17T05:34:04;0.60;72.80
21734;DHT22;11029;47.820;10.534;2023-03-17T05:36:31;0.60;73.40
21734;DHT22;11029;47.820;10.534;2023-03-17T05:38:59;0.50;73.80
21734;DHT22;11029;47.820;10.534;2023-03-17T05:41:25;0.50;73.90
21734;DHT22;11029;47.820;10.534;2023-03-17T05:43:52;0.50;73.90
21734;DHT22;11029;47.820;10.534;2023-03-17T05:46:19;0.50;73.70
21734;DHT22;11029;47.820;10.534;2023-03-17T05:48:46;0.60;73.90
21734;DHT22;11029;47.820;10.534;2023-03-17T05:51:13;0.70;72.90
21734;DHT22;11029;47.820;10.534;2023-03-17T05:53:40;0.70;72.80
21734;DHT22;11029;47.820;10.534;2023-03-17T05:56:07;0.80;72.90
21734;DHT22;11029;47.820;10.534;2023-03-17T05:58:34;0.90;72.40
21734;DHT22;11029;47.820;10.534;2023-03-17T06:01:01;1.00;71.80
21734;DHT22;11029;47.820;10.534;2023-03-17T06:03:28;1.10;70.90
21734;DHT22;11029;47.820;10.534;2023-03-17T06:05:54;1.00;71.10
21734;DHT22;11029;47.820;10.534;2023-03-17T06:08:22;1.10;71.10
21734;DHT22;11029;47.820;10.534;2023-03-17T06:10:49;1.00;71.00
21734;DHT22;11029;47.820;10.534;2023-03-17T06:13:15;0.90;72.30
21734;DHT22;11029;47.820;10.534;2023-03-17T06:15:42;0.90;72.70
21734;DHT22;11029;47.820;10.534;2023-03-17T06:18:09;0.90;73.00
21734;DHT22;11029;47.820;10.534;2023-03-17T06:20:36;1.00;72.80
21734;DHT22;11029;47.820;10.534;2023-03-17T06:23:02;1.00;72.70
21734;DHT22;11029;47.820;10.534;2023-03-17T06:25:34;1.00;72.20
21734;DHT22;11029;47.820;10.534;2023-03-17T06:28:02;1.10;71.90
21734;DHT22;11029;47.820;10.534;2023-03-17T06:30:32;1.20;71.90
21734;DHT22;11029;47.820;10.534;2023-03-17T06:33:00;1.20;71.30
21734;DHT22;11029;47.820;10.534;2023-03-17T06:35:27;1.20;71.60
21734;DHT22;11029;47.820;10.534;2023-03-17T06:37:55;1.20;71.70
21734;DHT22;11029;47.820;10.534;2023-03-17T06:40:21;1.40;70.90
21734;DHT22;11029;47.820;10.534;2023-03-17T06:42:48;1.60;71.00
21734;DHT22;11029;47.820;10.534;2023-03-17T06:45:15;1.80;70.10
21734;DHT22;11029;47.820;10.534;2023-03-17T06:47:42;1.90;69.60
21734;DHT22;11029;47.820;10.534;2023-03-17T06:50:10;2.10;69.50
21734;DHT22;11029;47.820;10.534;2023-03-17T06:52:38;2.10;69.40
21734;DHT22;11029;47.820;10.534;2023-03-17T06:55:06;2.30;69.00
21734;DHT22;11029;47.820;10.534;2023-03-17T06:57:33;2.50;68.40
21734;DHT22;11029;47.820;10.534;2023-03-17T07:00:00;2.60;67.90
21734;DHT22;11029;47.820;10.534;2023-03-17T07:02:26;2.70;67.70
21734;DHT22;11029;47.820;10.534;2023-03-17T07:04:53;2.70;67.80
21734;DHT22;11029;47.820;10.534;2023-03-17T07:07:20;2.90;67.60
21734;DHT22;11029;47.820;10.534;2023-03-17T07:09:47;3.20;67.30
21734;DHT22;11029;47.820;10.534;2023-03-17T07:12:14;3.40;67.00
21734;DHT22;11029;47.820;10.534;2023-03-17T07:14:41;3.70;66.20
21734;DHT22;11029;47.820;10.534;2023-03-17T07:17:12;3.80;65.90
21734;DHT22;11029;47.820;10.534;2023-03-17T07:19:39;3.80;66.00
21734;DHT22;11029;47.820;10.534;2023-03-17T07:22:08;3.60;67.50
21734;DHT22;11029;47.820;10.534;2023-03-17T07:24:35;3.80;67.20
21734;DHT22;11029;47.820;10.534;2023-03-17T07:27:01;4.10;66.50
21734;DHT22;11029;47.820;10.534;2023-03-17T07:29:28;4.20;64.20
21734;DHT22;11029;47.820;10.534;2023-03-17T07:31:55;4.40;64.20
21734;DHT22;11029;47.820;10.534;2023-03-17T07:34:22;4.60;64.10
21734;DHT22;11029;47.820;10.534;2023-03-17T07:36:49;4.80;63.20
21734;DHT22;11029;47.820;10.534;2023-03-17T07:39:16;4.90;62.40
21734;DHT22;11029;47.820;10.534;2023-03-17T07:41:43;5.00;62.60
21734;DHT22;11029;47.820;10.534;2023-03-17T07:44:10;5.20;62.30
21734;DHT22;11029;47.820;10.534;2023-03-17T07:46:37;5.50;62.10
21734;DHT22;11029;47.820;10.534;2023-03-17T07:49:04;5.60;61.30
21734;DHT22;11029;47.820;10.534;2023-03-17T07:51:31;5.50;61.60
21734;DHT22;11029;47.820;10.534;2023-03-17T07:53:58;5.80;62.00
21734;DHT22;11029;47.820;10.534;2023-03-17T07:56:31;6.20;61.40
21734;DHT22;11029;47.820;10.534;2023-03-17T07:58:58;6.40;58.80
21734;DHT22;11029;47.820;10.534;2023-03-17T08:01:26;6.50;58.60
21734;DHT22;11029;47.820;10.534;2023-03-17T08:03:54;6.80;58.30
21734;DHT22;11029;47.820;10.534;2023-03-17T08:06:22;7.10;57.50
21734;DHT22;11029;47.820;10.534;2023-03-17T08:08:51;7.50;56.80
21734;DHT22;11029;47.820;10.534;2023-03-17T08:11:18;7.70;54.60
21734;DHT22;11029;47.820;10.534;2023-03-17T08:13:46;7.70;54.90
21734;DHT22;11029;47.820;10.534;2023-03-17T08:16:13;7.80;55.50
21734;DHT22;11029;47.820;10.534;2023-03-17T08:18:40;8.10;55.80
21734;DHT22;11029;47.820;10.534;2023-03-17T08:21:07;8.40;55.00
21734;DHT22;11029;47.820;10.534;2023-03-17T08:23:33;8.60;53.20
21734;DHT22;11029;47.820;10.534;2023-03-17T08:26:02;8.70;52.80
21734;DHT22;11029;47.820;10.534;2023-03-17T08:28:30;9.00;53.00
21734;DHT22;11029;47.820;10.534;2023-03-17T08:31:17;9.20;52.20
21734;DHT22;11029;47.820;10.534;2023-03-17T08:33:47;9.50;50.60
21734;DHT22;11029;47.820;10.534;2023-03-17T08:36:14;9.70;50.00
21734;DHT22;11029;47.820;10.534;2023-03-17T08:38:42;9.90;50.50
21734;DHT22;11029;47.820;10.534;2023-03-17T08:41:13;10.10;48.80
21734;DHT22;11029;47.820;10.534;2023-03-17T08:43:41;10.20;48.20
21734;DHT22;11029;47.820;10.534;2023-03-17T08:46:21;10.40;48.10
21734;DHT22;11029;47.820;10.534;2023-03-17T08:48:49;10.50;47.40
21734;DHT22;11029;47.820;10.534;2023-03-17T08:51:17;10.60;46.80
21734;DHT22;11029;47.820;10.534;2023-03-17T08:53:48;10.70;46.10
21734;DHT22;11029;47.820;10.534;2023-03-17T08:56:15;10.80;45.20
21734;DHT22;11029;47.820;10.534;2023-03-17T08:58:43;10.90;44.60
21734;DHT22;11029;47.820;10.534;2023-03-17T09:01:11;11.20;45.30
21734;DHT22;11029;47.820;10.534;2023-03-17T09:03:38;11.40;45.30
21734;DHT22;11029;47.820;10.534;2023-03-17T09:06:07;11.50;46.20
21734;DHT22;11029;47.820;10.534;2023-03-17T09:08:35;11.70;46.70
21734;DHT22;11029;47.820;10.534;2023-03-17T09:11:06;11.90;47.00
21734;DHT22;11029;47.820;10.534;2023-03-17T09:13:34;12.10;47.00
21734;DHT22;11029;47.820;10.534;2023-03-17T09:16:01;12.30;46.90
21734;DHT22;11029;47.820;10.534;2023-03-17T09:18:28;12.40;46.20
21734;DHT22;11029;47.820;10.534;2023-03-17T09:20:56;12.50;45.70
21734;DHT22;11029;47.820;10.534;2023-03-17T09:23:23;12.50;45.50
21734;DHT22;11029;47.820;10.534;2023-03-17T09:25:51;12.60;45.10
21734;DHT22;11029;47.820;10.534;2023-03-17T09:28:18;12.70;44.90
21734;DHT22;11029;47.820;10.534;2023-03-17T09:30:45;12.80;45.00
21734;DHT22;11029;47.820;10.534;2023-03-17T09:33:12;12.90;45.90
21734;DHT22;11029;47.820;10.534;2023-03-17T09:35:39;13.00;45.20
21734;DHT22;11029;47.820;10.534;2023-03-17T09:38:07;13.10;44.20
21734;DHT22;11029;47.820;10.534;2023-03-17T09:40:40;13.10;44.40
21734;DHT22;11029;47.820;10.534;2023-03-17T09:43:29;13.10;44.10
21734;DHT22;11029;47.820;10.534;2023-03-17T09:46:04;13.10;43.40
21734;DHT22;11029;47.820;10.534;2023-03-17T09:51:11;13.20;44.90
21734;DHT22;11029;47.820;10.534;2023-03-17T09:54:02;13.30;44.80
21734;DHT22;11029;47.820;10.534;2023-03-17T09:56:32;13.50;44.40
21734;DHT22;11029;47.820;10.534;2023-03-17T09:59:05;13.60;44.00
21734;DHT22;11029;47.820;10.534;2023-03-17T10:01:32;13.70;43.00
21734;DHT22;11029;47.820;10.534;2023-03-17T10:04:00;13.80;42.80
21734;DHT22;11029;47.820;10.534;2023-03-17T10:06:46;13.90;42.20
21734;DHT22;11029;47.820;10.534;2023-03-17T10:09:15;14.00;42.30
21734;DHT22;11029;47.820;10.534;2023-03-17T10:11:49;14.20;41.70
21734;DHT22;11029;47.820;10.534;2023-03-17T10:14:40;14.40;41.50
21734;DHT22;11029;47.820;10.534;2023-03-17T10:17:18;14.50;40.80
21734;DHT22;11029;47.820;10.534;2023-03-17T10:20:39;14.80;40.70
21734;DHT22;11029;47.820;10.534;2023-03-17T10:23:02;15.00;40.10
21734;DHT22;11029;47.820;10.534;2023-03-17T10:25:34;15.20;38.90
21734;DHT22;11029;47.820;10.534;2023-03-17T10:28:25;15.50;38.20
21734;DHT22;11029;47.820;10.534;2023-03-17T10:30:53;15.50;36.40
21734;DHT22;11029;47.820;10.534;2023-03-17T10:33:20;15.60;35.90
21734;DHT22;11029;47.820;10.534;2023-03-17T10:35:47;15.60;34.10
21734;DHT22;11029;47.820;10.534;2023-03-17T10:38:16;15.60;31.50
21734;DHT22;11029;47.820;10.534;2023-03-17T10:41:07;15.60;31.40
21734;DHT22;11029;47.820;10.534;2023-03-17T10:43:44;15.70;32.90
21734;DHT22;11029;47.820;10.534;2023-03-17T10:46:23;15.60;33.90
21734;DHT22;11029;47.820;10.534;2023-03-17T10:48:55;15.70;34.00
21734;DHT22;11029;47.820;10.534;2023-03-17T10:51:31;15.70;33.70
21734;DHT22;11029;47.820;10.534;2023-03-17T10:54:07;15.60;36.10
21734;DHT22;11029;47.820;10.534;2023-03-17T10:56:36;15.60;36.90
21734;DHT22;11029;47.820;10.534;2023-03-17T10:59:14;15.60;38.90
21734;DHT22;11029;47.820;10.534;2023-03-17T11:01:46;15.40;40.90
21734;DHT22;11029;47.820;10.534;2023-03-17T11:04:35;15.40;41.20
21734;DHT22;11029;47.820;10.534;2023-03-17T11:07:08;15.30;41.40
21734;DHT22;11029;47.820;10.534;2023-03-17T11:09:37;15.30;41.50
21734;DHT22;11029;47.820;10.534;2023-03-17T11:12:06;15.30;41.60
21734;DHT22;11029;47.820;10.534;2023-03-17T11:14:34;15.50;40.90
21734;DHT22;11029;47.820;10.534;2023-03-17T11:17:16;15.50;40.70
21734;DHT22;11029;47.820;10.534;2023-03-17T11:20:08;15.60;40.70
21734;DHT22;11029;47.820;10.534;2023-03-17T11:22:46;15.80;41.20
21734;DHT22;11029;47.820;10.534;2023-03-17T11:25:18;15.90;40.60
21734;DHT22;11029;47.820;10.534;2023-03-17T11:33:34;16.40;39.30
21734;DHT22;11029;47.820;10.534;2023-03-17T11:39:02;16.60;38.80
21734;DHT22;11029;47.820;10.534;2023-03-17T11:49:39;16.90;39.10
21734;DHT22;11029;47.820;10.534;2023-03-17T11:55:08;17.30;39.20
21734;DHT22;11029;47.820;10.534;2023-03-17T11:57:54;17.40;38.90
21734;DHT22;11029;47.820;10.534;2023-03-17T12:00:46;17.60;38.90
21734;DHT22;11029;47.820;10.534;2023-03-17T12:04:03;17.70;38.00
21734;DHT22;11029;47.820;10.534;2023-03-17T12:06:11;17.70;38.90
21734;DHT22;11029;47.820;10.534;2023-03-17T12:08:58;17.60;39.10
21734;DHT22;11029;47.820;10.534;2023-03-17T12:11:28;17.50;38.90
21734;DHT22;11029;47.820;10.534;2023-03-17T12:14:04;17.40;38.90
21734;DHT22;11029;47.820;10.534;2023-03-17T12:16:34;17.30;40.00
21734;DHT22;11029;47.820;10.534;2023-03-17T12:19:12;17.40;38.20
21734;DHT22;11029;47.820;10.534;2023-03-17T12:24:47;17.60;38.80
21734;DHT22;11029;47.820;10.534;2023-03-17T12:27:25;17.70;38.10
21734;DHT22;11029;47.820;10.534;2023-03-17T12:32:54;17.30;37.70
21734;DHT22;11029;47.820;10.534;2023-03-17T12:35:32;17.30;38.80
21734;DHT22;11029;47.820;10.534;2023-03-17T12:38:12;17.30;38.10
21734;DHT22;11029;47.820;10.534;2023-03-17T12:43:47;17.60;38.10
21734;DHT22;11029;47.820;10.534;2023-03-17T12:46:28;17.60;37.70
21734;DHT22;11029;47.820;10.534;2023-03-17T12:52:05;17.70;37.80
21734;DHT22;11029;47.820;10.534;2023-03-17T12:54:36;17.90;36.80
21734;DHT22;11029;47.820;10.534;2023-03-17T12:57:18;17.80;36.90
21734;DHT22;11029;47.820;10.534;2023-03-17T12:59:48;18.10;36.70
21734;DHT22;11029;47.820;10.534;2023-03-17T13:04:53;18.70;36.60
21734;DHT22;11029;47.820;10.534;2023-03-17T13:07:35;18.90;36.60
21734;DHT22;11029;47.820;10.534;2023-03-17T13:10:19;19.00;35.90
21734;DHT22;11029;47.820;10.534;2023-03-17T13:23:39;18.90;36.10
21734;DHT22;11029;47.820;10.534;2023-03-17T13:26:14;18.90;36.70
21734;DHT22;11029;47.820;10.534;2023-03-17T13:28:46;18.90;37.00
21734;DHT22;11029;47.820;10.534;2023-03-17T13:34:18;18.80;37.10
21734;DHT22;11029;47.820;10.534;2023-03-17T13:37:02;18.90;37.60
21734;DHT22;11029;47.820;10.534;2023-03-17T13:39:54;19.00;36.90
21734;DHT22;11029;47.820;10.534;2023-03-17T13:42:43;19.00;35.70
21734;DHT22;11029;47.820;10.534;2023-03-17T13:45:41;19.00;35.60
21734;DHT22;11029;47.820;10.534;2023-03-17T13:50:59;18.90;35.30
21734;DHT22;11029;47.820;10.534;2023-03-17T13:53:29;19.00;35.90
21734;DHT22;11029;47.820;10.534;2023-03-17T13:56:13;19.00;35.30
21734;DHT22;11029;47.820;10.534;2023-03-17T14:01:51;19.20;35.30
21734;DHT22;11029;47.820;10.534;2023-03-17T14:04:38;19.10;35.20
21734;DHT22;11029;47.820;10.534;2023-03-17T14:07:13;19.00;35.10
21734;DHT22;11029;47.820;10.534;2023-03-17T14:09:42;18.90;35.60
21734;DHT22;11029;47.820;10.534;2023-03-17T14:12:21;18.80;35.80
21734;DHT22;11029;47.820;10.534;2023-03-17T14:15:07;18.80;36.30
21734;DHT22;11029;47.820;10.534;2023-03-17T14:17:43;18.80;35.90
21734;DHT22;11029;47.820;10.534;2023-03-17T14:22:43;18.70;36.10
21734;DHT22;11029;47.820;10.534;2023-03-17T14:25:17;18.70;36.00
21734;DHT22;11029;47.820;10.534;2023-03-17T14:27:47;18.60;36.50
21734;DHT22;11029;47.820;10.534;2023-03-17T14:30:19;18.60;36.40
21734;DHT22;11029;47.820;10.534;2023-03-17T14:35:40;18.70;36.50
21734;DHT22;11029;47.820;10.534;2023-03-17T14:38:28;19.00;36.60
21734;DHT22;11029;47.820;10.534;2023-03-17T14:43:42;20.30;35.80
21734;DHT22;11029;47.820;10.534;2023-03-17T14:48:47;22.00;33.20
21734;DHT22;11029;47.820;10.534;2023-03-17T14:51:34;22.90;32.00
21734;DHT22;11029;47.820;10.534;2023-03-17T14:54:13;24.20;30.60
21734;DHT22;11029;47.820;10.534;2023-03-17T14:56:43;25.30;29.20
21734;DHT22;11029;47.820;10.534;2023-03-17T15:01:54;28.10;26.80
21734;DHT22;11029;47.820;10.534;2023-03-17T15:04:24;29.70;25.90
21734;DHT22;11029;47.820;10.534;2023-03-17T15:07:03;31.10;24.50
21734;DHT22;11029;47.820;10.534;2023-03-17T15:12:03;33.20;23.20
21734;DHT22;11029;47.820;10.534;2023-03-17T15:14:37;33.00;22.50
21734;DHT22;11029;47.820;10.534;2023-03-17T15:17:13;31.80;23.10
21734;DHT22;11029;47.820;10.534;2023-03-17T15:19:44;30.40;24.20
21734;DHT22;11029;47.820;10.534;2023-03-17T15:22:28;28.90;25.20
21734;DHT22;11029;47.820;10.534;2023-03-17T15:25:23;27.80;26.00
21734;DHT22;11029;47.820;10.534;2023-03-17T15:27:52;27.00;26.80
21734;DHT22;11029;47.820;10.534;2023-03-17T15:30:19;25.90;27.70
21734;DHT22;11029;47.820;10.534;2023-03-17T15:32:51;24.70;28.70
21734;DHT22;11029;47.820;10.534;2023-03-17T15:35:18;23.70;29.90
21734;DHT22;11029;47.820;10.534;2023-03-17T15:37:45;23.10;30.80
21734;DHT22;11029;47.820;10.534;2023-03-17T15:40:12;23.00;30.90
21734;DHT22;11029;47.820;10.534;2023-03-17T15:42:39;23.40;30.40
21734;DHT22;11029;47.820;10.534;2023-03-17T15:45:06;23.60;30.40
21734;DHT22;11029;47.820;10.534;2023-03-17T15:47:35;23.70;30.30
21734;DHT22;11029;47.820;10.534;2023-03-17T15:52:41;24.80;29.50
21734;DHT22;11029;47.820;10.534;2023-03-17T15:55:23;25.30;29.10
21734;DHT22;11029;47.820;10.534;2023-03-17T15:57:50;25.90;28.60
21734;DHT22;11029;47.820;10.534;2023-03-17T16:00:23;26.50;28.20
21734;DHT22;11029;47.820;10.534;2023-03-17T16:02:52;27.30;27.30
21734;DHT22;11029;47.820;10.534;2023-03-17T16:05:27;27.80;26.90
21734;DHT22;11029;47.820;10.534;2023-03-17T16:07:55;27.80;26.80
21734;DHT22;11029;47.820;10.534;2023-03-17T16:10:27;27.40;27.00
21734;DHT22;11029;47.820;10.534;2023-03-17T16:12:55;27.00;27.60
21734;DHT22;11029;47.820;10.534;2023-03-17T16:15:24;26.30;28.30
21734;DHT22;11029;47.820;10.534;2023-03-17T16:17:53;25.50;29.20
21734;DHT22;11029;47.820;10.534;2023-03-17T16:20:24;25.40;29.60
21734;DHT22;11029;47.820;10.534;2023-03-17T16:22:54;25.70;29.20
21734;DHT22;11029;47.820;10.534;2023-03-17T16:25:29;26.00;28.90
21734;DHT22;11029;47.820;10.534;2023-03-17T16:27:59;26.00;29.00
21734;DHT22;11029;47.820;10.534;2023-03-17T16:30:31;25.50;29.40
21734;DHT22;11029;47.820;10.534;2023-03-17T16:33:01;24.50;30.60
21734;DHT22;11029;47.820;10.534;2023-03-17T16:35:28;24.00;31.40
21734;DHT22;11029;47.820;10.534;2023-03-17T16:37:55;23.40;32.30
21734;DHT22;11029;47.820;10.534;2023-03-17T16:40:33;22.70;33.50
21734;DHT22;11029;47.820;10.534;2023-03-17T16:43:03;21.80;34.50
21734;DHT22;11029;47.820;10.534;2023-03-17T16:45:41;21.30;36.10
21734;DHT22;11029;47.820;10.534;2023-03-17T16:48:11;20.90;36.70
21734;DHT22;11029;47.820;10.534;2023-03-17T16:50:38;20.60;37.10
21734;DHT22;11029;47.820;10.534;2023-03-17T16:53:05;20.30;38.20
21734;DHT22;11029;47.820;10.534;2023-03-17T16:55:32;20.00;39.10
21734;DHT22;11029;47.820;10.534;2023-03-17T16:58:03;19.30;40.40
21734;DHT22;11029;47.820;10.534;2023-03-17T17:00:31;18.70;41.20
21734;DHT22;11029;47.820;10.534;2023-03-17T17:02:58;18.00;42.80
21734;DHT22;11029;47.820;10.534;2023-03-17T17:05:29;17.40;44.00
21734;DHT22;11029;47.820;10.534;2023-03-17T17:07:57;17.00;45.00
21734;DHT22;11029;47.820;10.534;2023-03-17T17:10:27;16.60;45.90
21734;DHT22;11029;47.820;10.534;2023-03-17T17:12:54;16.20;46.50